الصفحة الرئيسية
METAR-TAF:

METAR-TAF

مطار :

مطار بويرتو برينسيسا الدولي

بورتوبرنسس, الفلبين

دائرة عرض: 09-44-32N, خط طول: 118-45-31E, ارتفاع: 22 متر

مراقبة الطقس الحالي

تاريخ ووقت الإصدار 42 دقيقة قبل الساعة 00:00UTC
ريح 8 عقدة من الشرق
درجة الحرارة 29°درجة مئوية
الرطوبة 70%
ضغط 1011 hPa
الرؤية 10 كم أو أكثر
غيوم قليلة على ارتفاع 2000 قدم

METAR: RPVP 290000Z 09008KT 9999 FEW020 29/23 Q1011 RMK A2983

زمن: 08:42 (00:42 UTC)

توقعات

تاريخ ووقت الإصدار 1ساعة و 42 دقيقة قبل الساعة 23:00UTC
التوقعات صالحة من29 الساعة 00 UTC إلى 29 الساعة 24 UTC
ريح 8 عقدة من الشرق
الرؤية 10 كم أو أكثر
غيوم قليلة على ارتفاع 1900 قدم
مؤقت
من 29 الساعة 00 UTC إلى 29 الساعة 06 UTC
ريح 12 عقدة من الشرق/الشمال الشرقي
غيوم قليلة على ارتفاع 1900 قدم
غيوم متفرقة على ارتفاع 25000 قدم

TAF: RPVP 282300Z 2900/2924 09008KT 9999 FEW019 TEMPO 2900/2906 07012KT FEW019 SCT250

أرصاد الطقس والتوقعات من أكثر من 4000 مطار (تقارير الطقس للمطار METAR والتنبؤ بالطقس بالمطارTAF).

المحطات المتاحة هي النقط الصفراء والحمراء على الخريطة.

حرك المؤشر فوق النقطة لمعرفة اسم المحطة.

ثم انقر لمعرفة أرصاد وتوقعات الطقس.

لتغيير الخارطة: اضغط على الأزرار الخضراء مع رمز الصليب الأسود للتكبير. على الزر الأخضر مع شرطة للتصغير، أو على الأسهم الخضراء للخرائط المجاورة.


METAR-TAF: